Time;durP1;ratioP1;P1;durP2;ratioP2;P2;SDS_P1;SDS_P2;PMS_P1;PMS_P2;Temp;Humidity;BMP_temperature;BMP_pressure;BME280_temperature;BME280_humidity;BME280_pressure;Samples;Min_cycle;Max_cycle;Signal;HPM_P1;HPM_P2
2022/05/31 00:01:39;;;;;;;3.10;2.90;;;8.50;99.90;;;;;;4983151;28;20505;-81
2022/05/31 00:04:28;;;;;;;3.93;3.40;;;8.40;99.90;;;;;;4979982;28;20477;-81
2022/05/31 00:07:18;;;;;;;3.20;3.00;;;8.40;99.90;;;;;;4979917;28;20977;-81
2022/05/31 00:10:08;;;;;;;3.97;3.57;;;8.40;99.90;;;;;;4982272;28;21040;-81
2022/05/31 00:12:56;;;;;;;3.43;3.13;;;8.40;99.90;;;;;;4981441;28;20469;-81
2022/05/31 00:15:44;;;;;;;3.27;3.00;;;8.30;99.90;;;;;;4980865;28;20946;-81
2022/05/31 00:18:34;;;;;;;3.60;3.30;;;8.40;99.90;;;;;;4976132;28;20447;-81
2022/05/31 00:21:26;;;;;;;3.30;3.00;;;8.30;99.90;;;;;;4974251;28;20486;-82
2022/05/31 00:24:20;;;;;;;3.87;3.57;;;8.30;99.90;;;;;;4979239;28;20536;-82
2022/05/31 00:27:09;;;;;;;3.60;3.20;;;8.30;99.90;;;;;;4981883;28;20510;-82
2022/05/31 00:29:57;;;;;;;3.30;3.10;;;8.30;99.90;;;;;;4980239;28;20570;-82
2022/05/31 00:32:49;;;;;;;3.13;2.83;;;8.20;99.90;;;;;;4977757;28;20499;-82
2022/05/31 00:35:44;;;;;;;3.10;2.80;;;8.20;99.90;;;;;;4981378;28;20495;-82
2022/05/31 00:38:32;;;;;;;2.80;2.60;;;8.20;99.90;;;;;;4973227;28;20534;-81
2022/05/31 00:41:25;;;;;;;3.43;3.13;;;8.10;99.90;;;;;;4977441;28;20446;-81
2022/05/31 00:44:19;;;;;;;3.57;3.27;;;8.10;99.90;;;;;;4975660;28;20521;-81
2022/05/31 00:47:12;;;;;;;3.77;3.47;;;8.10;99.90;;;;;;4976471;28;20466;-82
2022/05/31 00:50:03;;;;;;;4.00;3.40;;;8.10;99.90;;;;;;4977819;28;20499;-80
2022/05/31 00:52:56;;;;;;;3.37;3.17;;;8.10;99.90;;;;;;4978351;28;20478;-83
2022/05/31 00:55:52;;;;;;;3.90;2.97;;;8.10;99.90;;;;;;4983825;28;20541;-83
2022/05/31 00:58:45;;;;;;;3.50;3.20;;;8.00;99.90;;;;;;4979653;28;20469;-81
2022/05/31 01:01:36;;;;;;;3.90;3.60;;;8.00;99.90;;;;;;4976459;28;20540;-83
2022/05/31 01:04:33;;;;;;;3.33;2.93;;;7.90;99.90;;;;;;4973721;28;20508;-81
2022/05/31 01:07:21;;;;;;;3.20;2.90;;;7.90;99.90;;;;;;4981073;28;20445;-81
2022/05/31 01:10:11;;;;;;;3.20;2.90;;;7.90;99.90;;;;;;4979767;28;20469;-82
2022/05/31 01:13:01;;;;;;;4.63;3.40;;;7.90;99.90;;;;;;4980790;28;20505;-83
2022/05/31 01:15:51;;;;;;;3.20;2.90;;;7.90;99.90;;;;;;4978721;28;20533;-82
2022/05/31 01:18:39;;;;;;;3.67;2.90;;;7.90;99.90;;;;;;4981462;28;20585;-83
2022/05/31 01:21:31;;;;;;;3.40;3.10;;;7.90;99.90;;;;;;4977221;28;20469;-83
2022/05/31 01:24:21;;;;;;;2.80;2.60;;;7.90;99.90;;;;;;4976984;28;20450;-82
2022/05/31 01:27:17;;;;;;;4.23;3.00;;;7.80;99.90;;;;;;4975956;28;20548;-81
2022/05/31 01:30:08;;;;;;;3.53;3.23;;;7.80;99.90;;;;;;4978281;28;20492;-84
2022/05/31 01:33:01;;;;;;;4.57;3.13;;;7.80;99.90;;;;;;4979394;28;20457;-83
2022/05/31 01:35:49;;;;;;;3.83;3.43;;;7.80;99.90;;;;;;4976707;28;20473;-83
2022/05/31 01:38:44;;;;;;;3.80;3.50;;;7.70;99.90;;;;;;4981644;28;20521;-83
2022/05/31 01:41:38;;;;;;;3.43;3.13;;;7.70;99.90;;;;;;4983326;28;20508;-83
2022/05/31 01:44:33;;;;;;;4.63;2.97;;;7.70;99.90;;;;;;4980628;28;20521;-81
2022/05/31 01:47:22;;;;;;;3.17;2.87;;;7.60;99.90;;;;;;5007586;23;20657;-68
2022/05/31 01:50:13;;;;;;;3.30;3.00;;;7.60;99.90;;;;;;5004436;28;21204;-69
2022/05/31 01:53:02;;;;;;;3.40;3.10;;;7.60;99.90;;;;;;4999927;28;20472;-68
2022/05/31 01:55:52;;;;;;;3.60;3.30;;;7.60;99.90;;;;;;4998484;28;20501;-68
2022/05/31 01:58:47;;;;;;;3.67;3.17;;;7.50;99.90;;;;;;4983027;28;20454;-68
2022/05/31 02:01:38;;;;;;;3.70;3.40;;;7.50;99.90;;;;;;4985027;28;20496;-68
2022/05/31 02:04:27;;;;;;;3.10;2.90;;;7.50;99.90;;;;;;4980076;28;20982;-68
2022/05/31 02:07:17;;;;;;;3.37;2.90;;;7.40;99.90;;;;;;4982383;28;20559;-69
2022/05/31 02:10:06;;;;;;;3.57;3.27;;;7.50;99.90;;;;;;4982280;28;20623;-68
2022/05/31 02:12:57;;;;;;;5.00;3.20;;;7.50;99.90;;;;;;4984444;28;20516;-68
2022/05/31 02:15:45;;;;;;;3.60;2.90;;;7.40;99.90;;;;;;4982805;28;20468;-68
2022/05/31 02:21:36;;;;;;;4.10;3.00;;;7.30;99.90;;;;;;4983377;28;20591;-68
2022/05/31 02:24:26;;;;;;;3.77;3.47;;;7.40;99.90;;;;;;4981265;28;20513;-68
2022/05/31 02:27:15;;;;;;;3.50;3.20;;;7.30;99.90;;;;;;4986522;28;20573;-68
2022/05/31 02:30:06;;;;;;;4.83;3.50;;;7.30;99.90;;;;;;4981259;28;20579;-68
2022/05/31 02:32:54;;;;;;;4.10;3.70;;;7.30;99.90;;;;;;4981526;28;20597;-68
2022/05/31 02:35:42;;;;;;;4.13;3.47;;;7.20;99.90;;;;;;4982103;28;20527;-68
2022/05/31 02:38:30;;;;;;;3.63;3.33;;;7.20;99.90;;;;;;4983672;28;20602;-68
2022/05/31 02:41:19;;;;;;;4.33;3.93;;;7.20;99.90;;;;;;4993997;28;20934;-68
2022/05/31 02:44:08;;;;;;;3.37;3.00;;;7.20;99.90;;;;;;4980375;28;20555;-68
2022/05/31 02:46:58;;;;;;;4.00;3.70;;;7.20;99.90;;;;;;4983108;28;21069;-68
2022/05/31 02:49:47;;;;;;;3.80;3.33;;;7.20;99.90;;;;;;4982991;28;20481;-68
2022/05/31 02:52:36;;;;;;;3.37;3.07;;;7.10;99.90;;;;;;4982051;28;20449;-68
2022/05/31 02:55:24;;;;;;;3.53;3.23;;;7.10;99.90;;;;;;4985032;28;20461;-68
2022/05/31 02:58:12;;;;;;;3.50;3.20;;;7.00;99.90;;;;;;4985921;28;20990;-68
2022/05/31 03:01:00;;;;;;;3.50;3.20;;;7.00;99.90;;;;;;4980491;28;20594;-68
2022/05/31 03:03:50;;;;;;;3.60;2.67;;;7.00;99.90;;;;;;4980989;28;20489;-68
2022/05/31 03:06:40;;;;;;;3.13;2.90;;;7.00;99.90;;;;;;4980168;28;20980;-68
2022/05/31 03:09:28;;;;;;;3.73;3.00;;;7.00;99.90;;;;;;4982624;28;20686;-68
2022/05/31 03:12:19;;;;;;;3.47;3.20;;;7.00;99.90;;;;;;4982200;28;20491;-69
2022/05/31 03:15:10;;;;;;;3.87;3.57;;;7.00;99.90;;;;;;4982822;28;20572;-68
2022/05/31 03:18:04;;;;;;;3.50;3.20;;;7.00;99.90;;;;;;4988074;28;20572;-68
2022/05/31 03:20:58;;;;;;;3.43;3.13;;;7.00;99.90;;;;;;4979475;28;20599;-68
2022/05/31 03:23:50;;;;;;;3.57;3.27;;;7.00;99.90;;;;;;4977892;28;20461;-68
2022/05/31 03:26:40;;;;;;;4.23;3.40;;;6.90;99.90;;;;;;4987303;28;20600;-68
2022/05/31 03:29:28;;;;;;;3.77;3.47;;;6.90;99.90;;;;;;4987650;28;20541;-69
2022/05/31 03:32:17;;;;;;;3.13;2.80;;;6.80;99.90;;;;;;4981123;28;20540;-68
2022/05/31 03:35:08;;;;;;;3.80;3.50;;;6.80;99.90;;;;;;4982361;28;21081;-68
2022/05/31 03:37:57;;;;;;;3.80;3.33;;;6.80;99.90;;;;;;4980728;28;20453;-68
2022/05/31 03:40:58;;;;;;;4.00;3.60;;;6.80;99.90;;;;;;4983555;28;20449;-68
2022/05/31 03:43:46;;;;;;;3.57;3.27;;;6.80;99.90;;;;;;4981973;28;20495;-68
2022/05/31 03:46:35;;;;;;;3.60;3.37;;;6.90;99.90;;;;;;4983969;28;20527;-68
2022/05/31 03:49:23;;;;;;;3.50;3.20;;;6.80;99.90;;;;;;4984713;28;20511;-68
2022/05/31 03:52:12;;;;;;;3.23;3.03;;;6.80;99.90;;;;;;4979867;28;20454;-68
2022/05/31 03:55:01;;;;;;;3.67;3.37;;;6.80;99.90;;;;;;4982217;28;21092;-68
2022/05/31 03:57:50;;;;;;;3.93;3.63;;;6.80;99.90;;;;;;4980316;28;20512;-68
2022/05/31 04:00:39;;;;;;;3.37;3.17;;;6.80;99.90;;;;;;4985202;28;20445;-68
2022/05/31 04:03:27;;;;;;;4.07;3.70;;;6.80;99.90;;;;;;4986525;28;20491;-68
2022/05/31 04:06:15;;;;;;;3.90;3.60;;;6.90;99.90;;;;;;4987222;28;20611;-68
2022/05/31 04:09:04;;;;;;;4.00;3.60;;;6.90;99.90;;;;;;4989411;28;20487;-69
2022/05/31 04:11:56;;;;;;;3.80;3.40;;;6.90;99.90;;;;;;4982415;28;20477;-69
2022/05/31 04:14:45;;;;;;;3.93;3.63;;;7.00;99.90;;;;;;4978223;28;20460;-68
2022/05/31 04:17:33;;;;;;;3.90;3.30;;;7.00;99.90;;;;;;4986051;28;20521;-68
2022/05/31 04:20:21;;;;;;;3.73;3.43;;;7.00;99.90;;;;;;4985669;28;20535;-68
2022/05/31 04:26:16;;;;;;;5.23;3.40;;;7.00;99.90;;;;;;4982983;28;20560;-68
2022/05/31 04:29:06;;;;;;;4.73;4.33;;;7.10;99.90;;;;;;4987772;28;20504;-69
2022/05/31 04:31:54;;;;;;;4.00;3.70;;;7.20;99.90;;;;;;4985989;28;20465;-69
2022/05/31 04:34:42;;;;;;;4.07;3.77;;;7.20;99.90;;;;;;4984170;28;20500;-68
2022/05/31 04:37:30;;;;;;;4.07;3.77;;;7.20;99.90;;;;;;4993796;28;20943;-68
2022/05/31 04:40:19;;;;;;;4.30;3.90;;;7.30;99.90;;;;;;4985910;28;20540;-68
2022/05/31 04:43:07;;;;;;;4.40;4.00;;;7.40;99.90;;;;;;4982015;28;20563;-68
2022/05/31 04:45:58;;;;;;;4.97;4.47;;;7.40;99.90;;;;;;4981387;28;20564;-68
2022/05/31 04:48:46;;;;;;;4.40;4.00;;;7.50;99.90;;;;;;4990722;28;20499;-68
2022/05/31 04:51:35;;;;;;;4.07;3.67;;;7.60;99.90;;;;;;4985802;28;20482;-68
2022/05/31 04:54:30;;;;;;;4.50;4.13;;;7.60;99.90;;;;;;4983721;28;20457;-68
2022/05/31 04:57:18;;;;;;;5.20;4.80;;;7.70;99.90;;;;;;4984650;28;20525;-69
2022/05/31 05:00:07;;;;;;;10.13;5.40;;;7.80;99.90;;;;;;4984832;28;20537;-69
2022/05/31 05:02:57;;;;;;;5.93;5.33;;;7.90;99.90;;;;;;4979398;28;20812;-69
2022/05/31 05:05:45;;;;;;;8.20;6.53;;;8.00;99.90;;;;;;4987373;28;20484;-66
2022/05/31 05:08:34;;;;;;;6.60;6.00;;;8.00;99.90;;;;;;4984250;28;20462;-68
2022/05/31 05:11:24;;;;;;;6.67;5.90;;;8.10;99.90;;;;;;4984939;28;20485;-69
2022/05/31 05:14:12;;;;;;;6.77;6.00;;;8.20;99.90;;;;;;4977259;28;20479;-69
2022/05/31 05:17:00;;;;;;;7.53;6.83;;;8.30;99.90;;;;;;4978843;28;20946;-69
2022/05/31 05:19:50;;;;;;;7.17;6.37;;;8.40;99.90;;;;;;4977745;28;20449;-69
2022/05/31 05:22:38;;;;;;;6.40;5.80;;;8.40;99.90;;;;;;4970171;28;20458;-69
2022/05/31 05:25:27;;;;;;;6.63;6.03;;;8.50;99.90;;;;;;4975602;28;20486;-69
2022/05/31 05:31:25;;;;;;;6.30;5.70;;;8.70;99.90;;;;;;4981348;28;21092;-69
2022/05/31 05:34:13;;;;;;;5.63;5.13;;;8.80;99.90;;;;;;4976945;28;21149;-69
2022/05/31 05:37:03;;;;;;;7.17;6.20;;;8.80;99.90;;;;;;4986612;28;20611;-69
2022/05/31 05:39:53;;;;;;;6.30;5.63;;;8.90;99.90;;;;;;4978431;28;20535;-69
2022/05/31 05:42:42;;;;;;;5.47;4.97;;;9.00;99.90;;;;;;4978306;28;20505;-69
2022/05/31 05:45:31;;;;;;;5.80;5.20;;;9.10;99.90;;;;;;4985870;28;20460;-70
2022/05/31 05:48:20;;;;;;;4.80;4.40;;;9.20;99.90;;;;;;4960674;28;20462;-69
2022/05/31 05:51:13;;;;;;;4.40;4.00;;;9.30;99.90;;;;;;4973380;28;20556;-69
2022/05/31 05:54:03;;;;;;;4.20;3.90;;;9.30;99.90;;;;;;4966075;28;20490;-69
2022/05/31 05:56:51;;;;;;;4.70;3.50;;;9.40;99.90;;;;;;4971545;28;20502;-70
2022/05/31 05:59:39;;;;;;;4.17;3.50;;;9.50;99.90;;;;;;4968357;28;20553;-70
2022/05/31 06:02:30;;;;;;;3.10;2.77;;;9.60;99.90;;;;;;4967563;28;20469;-70
2022/05/31 06:05:40;;;;;;;2.90;2.60;;;9.70;99.90;;;;;;4970503;28;20504;-70
2022/05/31 06:08:32;;;;;;;3.40;2.83;;;9.80;99.90;;;;;;4962307;28;20560;-70
2022/05/31 06:11:25;;;;;;;3.67;3.37;;;9.80;99.90;;;;;;4969036;28;20542;-70
2022/05/31 06:14:17;;;;;;;4.17;3.77;;;9.90;99.90;;;;;;4965415;28;20810;-69
2022/05/31 06:17:10;;;;;;;3.60;3.30;;;10.00;99.90;;;;;;4970029;28;20543;-69
2022/05/31 06:20:06;;;;;;;4.80;3.70;;;10.10;99.90;;;;;;4961834;28;20463;-69
2022/05/31 06:22:57;;;;;;;4.20;3.90;;;10.20;99.90;;;;;;4966632;28;20454;-68
2022/05/31 06:25:45;;;;;;;3.20;3.00;;;10.30;99.90;;;;;;4971276;28;21065;-68
2022/05/31 06:28:34;;;;;;;3.60;3.30;;;10.40;99.90;;;;;;4968570;28;20519;-68
2022/05/31 06:31:22;;;;;;;3.43;3.13;;;10.40;99.90;;;;;;4968113;28;20516;-68
2022/05/31 06:34:11;;;;;;;5.43;2.70;;;10.50;99.90;;;;;;4970888;28;20835;-68
2022/05/31 06:37:04;;;;;;;4.13;3.23;;;10.60;99.90;;;;;;4972192;28;20498;-68
2022/05/31 06:39:52;;;;;;;2.63;2.43;;;10.60;99.90;;;;;;4969847;28;20545;-68
2022/05/31 06:42:40;;;;;;;3.10;1.97;;;10.70;99.90;;;;;;4969208;28;20469;-68
2022/05/31 06:45:30;;;;;;;3.10;2.07;;;10.80;99.90;;;;;;4966082;28;20465;-68
2022/05/31 06:48:18;;;;;;;2.60;2.23;;;10.80;99.90;;;;;;4967869;28;21055;-68
2022/05/31 06:51:08;;;;;;;3.43;2.40;;;10.90;99.90;;;;;;4967852;28;20473;-68
2022/05/31 06:57:03;;;;;;;1.73;1.60;;;11.00;99.90;;;;;;4961566;28;20920;-68
2022/05/31 06:59:51;;;;;;;2.20;2.00;;;11.00;99.90;;;;;;4966800;28;20506;-68
2022/05/31 07:02:40;;;;;;;2.60;1.83;;;11.10;99.90;;;;;;4966295;28;20959;-68
2022/05/31 07:05:29;;;;;;;1.30;1.20;;;11.10;99.90;;;;;;4971049;28;20443;-68
2022/05/31 07:08:17;;;;;;;1.43;1.23;;;11.20;99.90;;;;;;4969519;28;20629;-69
2022/05/31 07:11:07;;;;;;;1.63;1.23;;;11.30;99.90;;;;;;4967152;28;20556;-68
2022/05/31 07:13:56;;;;;;;2.80;1.40;;;11.30;99.90;;;;;;4971349;28;20513;-68
2022/05/31 07:16:44;;;;;;;2.20;1.60;;;11.40;99.90;;;;;;4970699;28;20565;-68
2022/05/31 07:19:34;;;;;;;1.40;1.30;;;11.50;99.90;;;;;;4967684;28;20455;-69
2022/05/31 07:22:43;;;;;;;1.70;1.60;;;11.60;99.90;;;;;;4966966;28;20447;-68
2022/05/31 07:25:31;;;;;;;1.80;1.70;;;11.60;99.90;;;;;;4967953;28;20462;-68
2022/05/31 07:28:19;;;;;;;2.40;1.30;;;11.70;99.90;;;;;;4964219;28;20958;-68
2022/05/31 07:31:07;;;;;;;1.53;1.30;;;11.80;99.90;;;;;;4968265;28;20526;-68
2022/05/31 07:33:56;;;;;;;1.70;1.60;;;11.80;99.90;;;;;;4968464;28;20744;-68
2022/05/31 07:36:46;;;;;;;1.80;1.67;;;11.90;99.90;;;;;;4967560;28;20541;-68
2022/05/31 07:39:34;;;;;;;3.17;1.47;;;12.00;99.90;;;;;;4965259;28;20951;-68
2022/05/31 07:42:22;;;;;;;1.67;1.50;;;12.10;99.90;;;;;;4965201;28;20455;-68
2022/05/31 07:45:12;;;;;;;2.50;1.53;;;12.20;99.90;;;;;;4954802;28;20602;-68
2022/05/31 07:48:00;;;;;;;1.37;1.27;;;12.20;99.90;;;;;;4985702;23;20494;-82
2022/05/31 07:50:51;;;;;;;1.60;1.50;;;12.30;99.90;;;;;;4980278;28;20460;-82
2022/05/31 07:53:40;;;;;;;1.80;1.70;;;12.40;99.90;;;;;;4978585;28;20697;-81
2022/05/31 07:56:29;;;;;;;1.77;1.67;;;12.40;99.90;;;;;;4978072;28;20587;-84
2022/05/31 07:59:17;;;;;;;3.00;1.87;;;12.40;99.90;;;;;;4982766;28;20595;-81
2022/05/31 08:02:06;;;;;;;1.73;1.50;;;12.50;99.90;;;;;;4973776;28;20450;-81
2022/05/31 08:04:55;;;;;;;1.80;1.50;;;12.60;99.90;;;;;;4980091;28;20466;-82
2022/05/31 08:07:43;;;;;;;2.70;1.97;;;12.80;99.90;;;;;;4983825;28;20469;-81
2022/05/31 08:10:33;;;;;;;2.20;1.60;;;12.80;99.90;;;;;;4975117;28;20881;-82
2022/05/31 08:13:21;;;;;;;1.40;1.30;;;12.80;99.90;;;;;;4982622;28;20477;-82
2022/05/31 08:16:12;;;;;;;3.40;1.73;;;12.90;99.90;;;;;;4982422;28;20485;-82
2022/05/31 08:19:01;;;;;;;1.90;1.80;;;13.00;99.90;;;;;;4986604;28;20458;-81
2022/05/31 08:21:49;;;;;;;2.57;2.00;;;13.10;99.90;;;;;;4979858;28;20596;-82
2022/05/31 08:24:38;;;;;;;1.70;1.60;;;13.20;99.90;;;;;;4979976;28;20937;-82
2022/05/31 08:27:34;;;;;;;4.13;2.10;;;13.20;99.90;;;;;;4978119;28;20459;-82
2022/05/31 08:30:23;;;;;;;1.60;1.40;;;13.30;99.90;;;;;;4973215;28;20991;-82
2022/05/31 08:33:11;;;;;;;2.73;1.80;;;13.30;99.90;;;;;;4976116;28;20481;-82
2022/05/31 08:35:59;;;;;;;4.07;1.67;;;13.30;99.90;;;;;;4973536;28;20473;-82
2022/05/31 08:38:51;;;;;;;2.07;1.40;;;13.30;99.90;;;;;;4986762;28;20470;-82
2022/05/31 08:41:45;;;;;;;1.80;1.70;;;13.30;99.90;;;;;;5000630;28;20512;-82
2022/05/31 08:44:50;;;;;;;1.70;1.60;;;13.30;99.90;;;;;;4988191;28;20526;-82
2022/05/31 08:47:44;;;;;;;1.33;1.23;;;13.40;99.90;;;;;;4984075;28;20485;-83
2022/05/31 08:56:56;;;;;;;2.00;1.80;;;13.50;99.90;;;;;;4974298;28;20489;-83
2022/05/31 08:57:04;;;;;;;1.80;1.43;;;13.60;99.90;;;;;;4972450;28;20994;-82
2022/05/31 08:59:59;;;;;;;1.73;1.43;;;13.60;99.90;;;;;;4975383;28;20533;-82
2022/05/31 09:02:52;;;;;;;1.73;1.60;;;13.70;99.90;;;;;;4972155;28;20513;-82
2022/05/31 09:05:46;;;;;;;2.27;1.97;;;13.70;99.90;;;;;;4991956;28;20582;-81
2022/05/31 09:08:38;;;;;;;3.07;2.03;;;13.70;99.90;;;;;;4975851;28;20722;-82
2022/05/31 09:11:31;;;;;;;1.87;1.73;;;13.70;99.90;;;;;;4973359;28;20461;-83
2022/05/31 09:14:28;;;;;;;1.83;1.73;;;13.80;99.90;;;;;;4976829;28;20791;-82
2022/05/31 09:17:26;;;;;;;3.17;2.00;;;13.90;99.90;;;;;;4982282;28;20833;-82
2022/05/31 09:20:18;;;;;;;1.60;1.50;;;13.90;99.90;;;;;;4981102;28;20915;-82
2022/05/31 09:23:07;;;;;;;5.40;1.60;;;14.00;99.90;;;;;;4985416;28;20465;-82
2022/05/31 09:26:06;;;;;;;3.13;2.30;;;14.10;99.90;;;;;;4988509;28;20516;-82
2022/05/31 09:29:01;;;;;;;2.60;1.90;;;14.20;99.90;;;;;;4986816;28;20900;-82
2022/05/31 09:32:03;;;;;;;2.70;2.50;;;14.20;99.90;;;;;;4978429;28;20454;-82
2022/05/31 09:35:15;;;;;;;2.50;2.10;;;14.20;99.90;;;;;;4979959;28;20847;-82
2022/05/31 09:38:33;;;;;;;2.23;2.03;;;14.20;99.90;;;;;;4987642;28;20519;-82
2022/05/31 09:41:27;;;;;;;1.80;1.70;;;14.30;99.90;;;;;;4983577;28;20470;-83
2022/05/31 09:44:24;;;;;;;2.60;2.20;;;14.30;99.90;;;;;;4978606;28;21016;-82
2022/05/31 09:47:17;;;;;;;3.33;2.10;;;14.30;99.90;;;;;;4983574;28;20481;-82
2022/05/31 09:50:08;;;;;;;4.30;1.93;;;14.40;99.90;;;;;;4989788;28;20531;-82
2022/05/31 09:52:57;;;;;;;2.40;2.20;;;14.40;99.90;;;;;;4989158;28;20508;-83
2022/05/31 09:59:06;;;;;;;2.50;2.20;;;14.50;99.90;;;;;;4985496;28;20457;-83
2022/05/31 10:01:56;;;;;;;3.03;2.03;;;14.60;99.90;;;;;;4979821;28;20507;-82
2022/05/31 10:04:44;;;;;;;2.10;2.00;;;14.60;99.90;;;;;;4988346;28;20449;-82
2022/05/31 10:07:37;;;;;;;2.50;1.90;;;14.60;99.90;;;;;;4990265;28;20531;-82
2022/05/31 10:10:29;;;;;;;1.87;1.77;;;14.60;99.90;;;;;;4976842;28;20470;-82
2022/05/31 10:13:36;;;;;;;2.20;1.40;;;14.70;99.90;;;;;;4975888;28;20558;-83
2022/05/31 10:16:26;;;;;;;2.23;1.70;;;14.70;99.90;;;;;;4973917;28;20597;-82
2022/05/31 10:19:23;;;;;;;2.23;1.50;;;14.70;99.90;;;;;;4976119;28;20466;-82
2022/05/31 10:22:17;;;;;;;1.73;1.50;;;14.70;99.90;;;;;;4986351;28;20478;-82
2022/05/31 10:25:21;;;;;;;1.60;1.50;;;14.80;99.90;;;;;;4978528;28;20510;-82
2022/05/31 10:28:15;;;;;;;2.23;2.03;;;14.80;99.90;;;;;;4975520;28;20470;-82
2022/05/31 10:31:13;;;;;;;3.20;1.70;;;14.80;99.90;;;;;;4978977;28;20478;-82
2022/05/31 10:34:04;;;;;;;1.50;1.30;;;14.90;99.90;;;;;;4980559;28;20489;-82
2022/05/31 10:36:54;;;;;;;1.50;1.40;;;14.90;99.90;;;;;;4972770;28;20900;-82
2022/05/31 10:39:43;;;;;;;1.83;1.60;;;15.00;99.90;;;;;;4976759;28;20453;-82
2022/05/31 10:42:38;;;;;;;1.60;1.50;;;15.00;99.90;;;;;;4986069;28;20461;-81
2022/05/31 10:45:28;;;;;;;1.33;1.23;;;15.10;99.90;;;;;;4984408;28;20480;-81
2022/05/31 10:48:16;;;;;;;2.00;1.90;;;15.20;99.90;;;;;;4992761;28;20486;-82
2022/05/31 10:51:12;;;;;;;1.80;1.60;;;15.30;99.90;;;;;;4991350;28;20458;-82
2022/05/31 10:54:11;;;;;;;2.80;1.10;;;15.40;99.90;;;;;;4972814;28;20817;-82
2022/05/31 10:57:14;;;;;;;2.10;1.10;;;15.50;99.90;;;;;;4983539;28;20474;-80
2022/05/31 11:00:14;;;;;;;1.77;1.50;;;15.60;99.90;;;;;;4985829;28;20512;-80
2022/05/31 11:03:30;;;;;;;1.40;1.30;;;15.70;99.90;;;;;;4988077;28;20473;-82
2022/05/31 11:06:34;;;;;;;1.93;1.40;;;15.80;99.90;;;;;;4976817;28;20553;-82
2022/05/31 11:13:02;;;;;;;1.40;1.30;;;16.00;99.90;;;;;;4974929;28;20571;-82
2022/05/31 11:16:00;;;;;;;1.37;1.07;;;16.00;99.90;;;;;;4974652;28;20473;-81
2022/05/31 11:19:06;;;;;;;1.50;1.30;;;16.00;99.90;;;;;;4976790;28;20814;-81
2022/05/31 11:22:05;;;;;;;1.30;1.20;;;16.20;99.90;;;;;;4978632;28;20573;-81
2022/05/31 11:25:19;;;;;;;1.70;1.60;;;16.20;99.90;;;;;;4980469;28;20527;-80
2022/05/31 11:28:21;;;;;;;1.20;1.10;;;16.30;99.90;;;;;;4975113;28;20656;-81
2022/05/31 11:31:22;;;;;;;1.53;1.30;;;16.40;99.90;;;;;;4980138;28;20551;-80
2022/05/31 11:34:25;;;;;;;1.30;1.20;;;16.50;99.90;;;;;;4979241;28;21044;-81
2022/05/31 11:37:40;;;;;;;1.87;1.23;;;16.60;99.90;;;;;;4978557;28;20504;-81
2022/05/31 11:40:58;;;;;;;1.40;1.30;;;16.70;99.90;;;;;;4981615;28;20862;-81
2022/05/31 11:44:20;;;;;;;1.10;1.10;;;16.70;99.90;;;;;;4977944;28;20570;-82
2022/05/31 11:47:22;;;;;;;1.27;1.17;;;16.80;99.90;;;;;;4978724;28;20566;-80
2022/05/31 11:50:18;;;;;;;2.30;1.40;;;17.00;99.90;;;;;;4986122;28;20450;-80
2022/05/31 11:53:22;;;;;;;2.33;1.33;;;16.90;99.90;;;;;;4981909;28;20571;-81
2022/05/31 11:56:14;;;;;;;1.40;1.27;;;17.00;99.90;;;;;;4985009;28;20457;-81
2022/05/31 11:59:08;;;;;;;1.43;1.30;;;17.10;99.90;;;;;;4979962;28;20484;-82
2022/05/31 12:02:04;;;;;;;1.57;0.90;;;17.20;99.90;;;;;;4973355;28;20476;-82
2022/05/31 12:05:00;;;;;;;1.33;1.23;;;17.30;99.90;;;;;;4985011;28;20458;-82
2022/05/31 12:07:56;;;;;;;0.97;0.97;;;17.40;99.90;;;;;;4982633;28;20538;-82
2022/05/31 12:10:49;;;;;;;1.53;1.17;;;17.60;99.90;;;;;;4974092;28;20539;-82
2022/05/31 12:13:41;;;;;;;1.20;1.10;;;17.80;99.90;;;;;;4980795;28;20592;-81
2022/05/31 12:16:30;;;;;;;1.83;1.00;;;17.80;99.90;;;;;;4978171;28;20598;-81
2022/05/31 12:19:27;;;;;;;2.07;1.30;;;17.80;99.90;;;;;;4982223;28;20522;-80
2022/05/31 12:22:22;;;;;;;3.27;1.00;;;17.70;99.90;;;;;;4992545;28;20473;-80
2022/05/31 12:25:15;;;;;;;1.43;0.97;;;17.70;99.90;;;;;;4977955;28;20446;-82
2022/05/31 12:28:12;;;;;;;2.00;0.90;;;17.70;99.90;;;;;;4981283;28;20474;-82
2022/05/31 12:31:07;;;;;;;1.10;1.00;;;17.60;99.90;;;;;;4976878;28;20529;-82
2022/05/31 12:34:37;;;;;;;3.43;1.17;;;17.60;99.90;;;;;;4999133;28;20505;-81
2022/05/31 12:37:27;;;;;;;1.70;1.03;;;17.60;99.90;;;;;;4980518;28;20478;-81
2022/05/31 12:40:26;;;;;;;1.10;1.00;;;17.60;99.90;;;;;;4980015;28;20450;-82
2022/05/31 12:43:17;;;;;;;1.47;1.17;;;17.50;99.90;;;;;;4980292;28;21038;-81
2022/05/31 12:46:21;;;;;;;1.83;1.10;;;17.50;99.90;;;;;;4978296;28;20461;-81
2022/05/31 12:49:21;;;;;;;1.40;1.20;;;17.50;99.90;;;;;;4978142;28;20473;-81
2022/05/31 12:55:57;;;;;;;1.30;1.20;;;17.50;99.90;;;;;;4983497;28;20817;-82
2022/05/31 12:58:50;;;;;;;1.43;1.27;;;17.50;99.90;;;;;;4980479;28;20462;-81
2022/05/31 13:01:59;;;;;;;1.27;1.07;;;17.40;99.90;;;;;;4979991;28;20577;-81
2022/05/31 13:04:53;;;;;;;1.43;1.30;;;17.40;99.90;;;;;;4979476;28;20454;-81
2022/05/31 13:07:44;;;;;;;1.10;1.03;;;17.30;99.90;;;;;;4984919;28;20584;-81
2022/05/31 13:10:36;;;;;;;3.47;1.40;;;17.30;99.90;;;;;;4982669;28;20446;-83
2022/05/31 13:19:54;;;;;;;4.00;2.50;;;17.40;99.90;;;;;;4979551;28;20457;-81
2022/05/31 13:22:44;;;;;;;4.00;1.40;;;17.30;99.90;;;;;;4981659;28;20527;-84
2022/05/31 13:25:39;;;;;;;1.30;1.20;;;17.30;99.90;;;;;;4981201;28;20533;-82
2022/05/31 13:28:33;;;;;;;1.37;1.10;;;17.30;99.90;;;;;;4981230;28;20469;-83
2022/05/31 13:31:25;;;;;;;2.40;1.63;;;17.30;99.90;;;;;;4980024;28;20446;-82
2022/05/31 13:34:25;;;;;;;1.30;1.20;;;17.20;99.90;;;;;;4976196;28;21286;-82
2022/05/31 13:37:18;;;;;;;1.40;1.30;;;17.30;99.90;;;;;;4971999;28;20539;-82
2022/05/31 13:40:07;;;;;;;1.60;1.27;;;17.50;99.90;;;;;;4983347;28;20868;-82
2022/05/31 13:42:55;;;;;;;1.57;1.30;;;17.70;99.90;;;;;;4990275;28;20528;-82
2022/05/31 13:45:44;;;;;;;1.83;1.73;;;17.90;99.90;;;;;;4983770;28;20926;-81
2022/05/31 13:48:38;;;;;;;1.50;1.40;;;18.00;99.90;;;;;;5006879;23;20503;-69
2022/05/31 13:51:29;;;;;;;3.50;1.57;;;18.10;99.90;;;;;;5001264;28;20962;-68
2022/05/31 13:54:21;;;;;;;1.27;1.20;;;18.20;99.90;;;;;;4997588;28;20988;-68
2022/05/31 13:57:12;;;;;;;1.33;1.23;;;18.20;99.90;;;;;;4990307;28;20633;-68
2022/05/31 14:00:02;;;;;;;1.63;1.53;;;18.20;99.90;;;;;;4976717;28;21033;-68
2022/05/31 14:03:03;;;;;;;2.20;2.00;;;18.10;99.90;;;;;;4982862;28;20465;-68
2022/05/31 14:05:56;;;;;;;2.00;1.83;;;18.20;99.90;;;;;;4986290;28;20453;-68
2022/05/31 14:08:51;;;;;;;1.60;1.50;;;18.20;99.90;;;;;;4984534;28;20465;-71
2022/05/31 14:11:44;;;;;;;4.13;1.50;;;18.10;99.90;;;;;;4984093;28;20981;-67
2022/05/31 14:14:35;;;;;;;1.67;1.57;;;18.00;99.90;;;;;;4979373;28;20556;-70
2022/05/31 14:17:36;;;;;;;1.40;1.30;;;18.00;99.90;;;;;;4973805;28;21012;-67
2022/05/31 14:20:28;;;;;;;1.73;1.37;;;18.00;99.90;;;;;;4978622;28;20968;-70
2022/05/31 14:23:21;;;;;;;1.50;1.20;;;18.10;99.90;;;;;;4986868;28;20481;-70
2022/05/31 14:26:10;;;;;;;1.43;1.33;;;18.10;99.90;;;;;;4972520;28;20556;-67
2022/05/31 14:29:28;;;;;;;2.50;1.53;;;18.10;99.90;;;;;;4967547;28;21208;-67
2022/05/31 14:32:21;;;;;;;1.30;1.30;;;18.10;99.90;;;;;;4991021;28;20852;-68
2022/05/31 14:35:18;;;;;;;1.60;1.50;;;18.10;99.90;;;;;;4975828;28;21033;-68
2022/05/31 14:38:08;;;;;;;1.37;1.27;;;18.10;99.90;;;;;;4976472;28;20473;-67
2022/05/31 14:41:01;;;;;;;1.50;1.40;;;18.00;99.90;;;;;;4981634;28;20794;-68
2022/05/31 14:43:52;;;;;;;2.60;1.90;;;17.90;99.90;;;;;;4987981;28;20992;-67
2022/05/31 14:46:41;;;;;;;2.50;2.13;;;17.80;99.90;;;;;;4982874;28;20461;-67
2022/05/31 14:49:29;;;;;;;2.10;2.00;;;17.80;99.90;;;;;;4985837;28;20458;-67
2022/05/31 14:52:26;;;;;;;2.20;1.80;;;17.70;99.90;;;;;;4987495;28;20914;-69
2022/05/31 14:55:24;;;;;;;1.50;1.40;;;17.70;99.90;;;;;;4983117;28;20569;-66
2022/05/31 14:58:38;;;;;;;3.13;1.70;;;17.70;99.90;;;;;;4969409;28;20476;-70
2022/05/31 15:01:43;;;;;;;3.30;1.80;;;17.60;99.90;;;;;;4983704;28;20472;-67
2022/05/31 15:04:43;;;;;;;2.27;2.00;;;17.70;99.90;;;;;;4975905;28;20443;-67
2022/05/31 15:07:49;;;;;;;1.60;1.50;;;17.70;99.90;;;;;;4973557;28;20473;-67
2022/05/31 15:10:53;;;;;;;1.70;1.60;;;17.80;99.90;;;;;;4977100;28;20457;-66
2022/05/31 15:19:54;;;;;;;2.00;1.90;;;17.90;99.90;;;;;;4976556;28;20535;-68
2022/05/31 15:22:43;;;;;;;2.30;2.10;;;18.00;99.90;;;;;;4982917;28;20470;-67
2022/05/31 15:25:31;;;;;;;2.40;2.20;;;18.00;99.90;;;;;;4980860;28;20447;-68
2022/05/31 15:28:19;;;;;;;2.50;2.30;;;18.00;99.90;;;;;;4987149;28;20581;-68
2022/05/31 15:31:32;;;;;;;1.90;1.80;;;18.00;99.90;;;;;;4976064;28;20918;-68
2022/05/31 15:34:40;;;;;;;2.20;2.00;;;17.90;99.90;;;;;;4981149;28;20473;-68
2022/05/31 15:37:30;;;;;;;2.40;2.00;;;17.90;99.90;;;;;;4982757;28;20549;-67
2022/05/31 15:40:21;;;;;;;4.33;2.00;;;17.80;99.90;;;;;;4986622;28;20603;-68
2022/05/31 15:43:10;;;;;;;2.10;2.00;;;17.80;99.90;;;;;;4989671;28;21051;-68